sensor_id;sensor_type;location;lat;lon;timestamp;P1;durP1;ratioP1;P2;durP2;ratioP2
20910;SDS011;10615;42.702;23.314;2024-02-28T00:00:53;23.00;;;14.75;;
20910;SDS011;10615;42.702;23.314;2024-02-28T00:01:54;21.20;;;14.70;;
20910;SDS011;10615;42.702;23.314;2024-02-28T00:02:55;21.27;;;14.02;;
20910;SDS011;10615;42.702;23.314;2024-02-28T00:03:56;24.25;;;14.57;;
20910;SDS011;10615;42.702;23.314;2024-02-28T00:04:56;21.58;;;14.05;;
20910;SDS011;10615;42.702;23.314;2024-02-28T00:06:00;26.40;;;15.38;;
20910;SDS011;10615;42.702;23.314;2024-02-28T00:07:01;20.42;;;14.55;;
20910;SDS011;10615;42.702;23.314;2024-02-28T00:08:01;23.52;;;15.93;;
20910;SDS011;10615;42.702;23.314;2024-02-28T00:09:02;23.58;;;15.40;;
20910;SDS011;10615;42.702;23.314;2024-02-28T00:10:03;24.85;;;15.55;;
20910;SDS011;10615;42.702;23.314;2024-02-28T00:11:04;22.15;;;15.75;;
20910;SDS011;10615;42.702;23.314;2024-02-28T00:12:05;23.50;;;14.75;;
20910;SDS011;10615;42.702;23.314;2024-02-28T00:13:05;23.60;;;15.88;;
20910;SDS011;10615;42.702;23.314;2024-02-28T00:14:07;24.02;;;16.42;;
20910;SDS011;10615;42.702;23.314;2024-02-28T00:15:08;26.20;;;15.93;;
20910;SDS011;10615;42.702;23.314;2024-02-28T00:16:10;26.55;;;16.65;;
20910;SDS011;10615;42.702;23.314;2024-02-28T00:17:12;27.90;;;16.70;;
20910;SDS011;10615;42.702;23.314;2024-02-28T00:18:13;27.08;;;17.38;;
20910;SDS011;10615;42.702;23.314;2024-02-28T00:19:14;28.42;;;17.92;;
20910;SDS011;10615;42.702;23.314;2024-02-28T00:20:17;27.70;;;17.90;;
20910;SDS011;10615;42.702;23.314;2024-02-28T00:21:17;28.20;;;17.95;;
20910;SDS011;10615;42.702;23.314;2024-02-28T00:22:18;26.55;;;17.08;;
20910;SDS011;10615;42.702;23.314;2024-02-28T00:23:19;27.65;;;17.70;;
20910;SDS011;10615;42.702;23.314;2024-02-28T00:24:20;24.05;;;16.90;;
20910;SDS011;10615;42.702;23.314;2024-02-28T00:25:20;25.67;;;17.90;;
20910;SDS011;10615;42.702;23.314;2024-02-28T00:26:21;24.67;;;16.60;;
20910;SDS011;10615;42.702;23.314;2024-02-28T00:27:22;28.17;;;17.35;;
20910;SDS011;10615;42.702;23.314;2024-02-28T00:28:22;26.88;;;17.65;;
20910;SDS011;10615;42.702;23.314;2024-02-28T00:29:23;26.83;;;17.42;;
20910;SDS011;10615;42.702;23.314;2024-02-28T00:30:24;26.27;;;17.15;;
20910;SDS011;10615;42.702;23.314;2024-02-28T00:31:25;28.63;;;18.63;;
20910;SDS011;10615;42.702;23.314;2024-02-28T00:32:26;25.38;;;17.48;;
20910;SDS011;10615;42.702;23.314;2024-02-28T00:33:26;28.10;;;17.45;;
20910;SDS011;10615;42.702;23.314;2024-02-28T00:34:27;27.83;;;18.08;;
20910;SDS011;10615;42.702;23.314;2024-02-28T00:35:30;26.63;;;17.67;;
20910;SDS011;10615;42.702;23.314;2024-02-28T00:36:33;26.08;;;18.13;;
20910;SDS011;10615;42.702;23.314;2024-02-28T00:37:34;26.27;;;16.85;;
20910;SDS011;10615;42.702;23.314;2024-02-28T00:38:34;26.88;;;16.83;;
20910;SDS011;10615;42.702;23.314;2024-02-28T00:39:35;24.92;;;16.65;;
20910;SDS011;10615;42.702;23.314;2024-02-28T00:40:36;24.42;;;16.50;;
20910;SDS011;10615;42.702;23.314;2024-02-28T00:41:37;32.42;;;16.35;;
20910;SDS011;10615;42.702;23.314;2024-02-28T00:42:38;23.73;;;16.25;;
20910;SDS011;10615;42.702;23.314;2024-02-28T00:43:38;24.92;;;16.65;;
20910;SDS011;10615;42.702;23.314;2024-02-28T00:44:39;25.42;;;15.88;;
20910;SDS011;10615;42.702;23.314;2024-02-28T00:45:42;29.52;;;16.58;;
20910;SDS011;10615;42.702;23.314;2024-02-28T00:46:44;24.98;;;15.85;;
20910;SDS011;10615;42.702;23.314;2024-02-28T00:47:45;23.65;;;15.80;;
20910;SDS011;10615;42.702;23.314;2024-02-28T00:48:45;25.15;;;16.08;;
20910;SDS011;10615;42.702;23.314;2024-02-28T00:49:46;26.70;;;17.48;;
20910;SDS011;10615;42.702;23.314;2024-02-28T00:50:47;28.45;;;16.23;;
20910;SDS011;10615;42.702;23.314;2024-02-28T00:51:47;26.52;;;15.90;;
20910;SDS011;10615;42.702;23.314;2024-02-28T00:52:48;29.23;;;16.63;;
20910;SDS011;10615;42.702;23.314;2024-02-28T00:53:49;30.33;;;16.50;;
20910;SDS011;10615;42.702;23.314;2024-02-28T00:54:50;26.92;;;16.50;;
20910;SDS011;10615;42.702;23.314;2024-02-28T00:55:50;24.33;;;15.82;;
20910;SDS011;10615;42.702;23.314;2024-02-28T00:56:52;26.95;;;16.45;;
20910;SDS011;10615;42.702;23.314;2024-02-28T00:57:52;24.20;;;16.42;;
20910;SDS011;10615;42.702;23.314;2024-02-28T00:58:53;28.17;;;16.02;;
20910;SDS011;10615;42.702;23.314;2024-02-28T00:59:54;22.30;;;16.42;;
20910;SDS011;10615;42.702;23.314;2024-02-28T01:00:54;24.83;;;16.52;;
20910;SDS011;10615;42.702;23.314;2024-02-28T01:01:55;24.15;;;16.23;;
20910;SDS011;10615;42.702;23.314;2024-02-28T01:02:56;25.35;;;16.08;;
20910;SDS011;10615;42.702;23.314;2024-02-28T01:03:57;24.70;;;15.80;;
20910;SDS011;10615;42.702;23.314;2024-02-28T01:04:57;25.85;;;16.40;;
20910;SDS011;10615;42.702;23.314;2024-02-28T01:05:58;27.58;;;16.05;;
20910;SDS011;10615;42.702;23.314;2024-02-28T01:07:01;25.85;;;17.38;;
20910;SDS011;10615;42.702;23.314;2024-02-28T01:08:01;21.83;;;15.57;;
20910;SDS011;10615;42.702;23.314;2024-02-28T01:09:02;26.35;;;16.45;;
20910;SDS011;10615;42.702;23.314;2024-02-28T01:10:03;23.45;;;16.13;;
20910;SDS011;10615;42.702;23.314;2024-02-28T01:11:04;26.88;;;16.48;;
20910;SDS011;10615;42.702;23.314;2024-02-28T01:12:05;24.83;;;15.90;;
20910;SDS011;10615;42.702;23.314;2024-02-28T01:13:06;24.20;;;16.42;;
20910;SDS011;10615;42.702;23.314;2024-02-28T01:14:07;23.92;;;16.05;;
20910;SDS011;10615;42.702;23.314;2024-02-28T01:15:08;23.88;;;16.08;;
20910;SDS011;10615;42.702;23.314;2024-02-28T01:16:09;27.40;;;16.33;;
20910;SDS011;10615;42.702;23.314;2024-02-28T01:17:09;25.27;;;16.30;;
20910;SDS011;10615;42.702;23.314;2024-02-28T01:18:10;22.80;;;16.45;;
20910;SDS011;10615;42.702;23.314;2024-02-28T01:19:11;26.65;;;17.15;;
20910;SDS011;10615;42.702;23.314;2024-02-28T01:20:12;31.63;;;17.05;;
20910;SDS011;10615;42.702;23.314;2024-02-28T01:21:13;22.02;;;15.60;;
20910;SDS011;10615;42.702;23.314;2024-02-28T01:22:13;26.58;;;17.08;;
20910;SDS011;10615;42.702;23.314;2024-02-28T01:23:14;25.10;;;17.83;;
20910;SDS011;10615;42.702;23.314;2024-02-28T01:24:15;23.48;;;16.25;;
20910;SDS011;10615;42.702;23.314;2024-02-28T01:25:16;26.20;;;17.30;;
20910;SDS011;10615;42.702;23.314;2024-02-28T01:26:16;29.25;;;17.75;;
20910;SDS011;10615;42.702;23.314;2024-02-28T01:27:20;26.50;;;17.45;;
20910;SDS011;10615;42.702;23.314;2024-02-28T01:28:20;25.95;;;17.63;;
20910;SDS011;10615;42.702;23.314;2024-02-28T01:29:21;26.92;;;16.95;;
20910;SDS011;10615;42.702;23.314;2024-02-28T01:30:22;26.55;;;17.23;;
20910;SDS011;10615;42.702;23.314;2024-02-28T01:31:23;27.92;;;17.70;;
20910;SDS011;10615;42.702;23.314;2024-02-28T01:32:24;27.27;;;17.65;;
20910;SDS011;10615;42.702;23.314;2024-02-28T01:33:25;26.10;;;17.58;;
20910;SDS011;10615;42.702;23.314;2024-02-28T01:34:25;25.15;;;16.92;;
20910;SDS011;10615;42.702;23.314;2024-02-28T01:35:26;26.15;;;16.55;;
20910;SDS011;10615;42.702;23.314;2024-02-28T01:36:27;26.63;;;16.95;;
20910;SDS011;10615;42.702;23.314;2024-02-28T01:37:28;25.98;;;17.13;;
20910;SDS011;10615;42.702;23.314;2024-02-28T01:38:28;26.60;;;17.52;;
20910;SDS011;10615;42.702;23.314;2024-02-28T01:39:29;24.95;;;16.42;;
20910;SDS011;10615;42.702;23.314;2024-02-28T01:40:30;26.27;;;16.63;;
20910;SDS011;10615;42.702;23.314;2024-02-28T01:41:30;23.58;;;16.10;;
20910;SDS011;10615;42.702;23.314;2024-02-28T01:42:31;26.13;;;16.58;;
20910;SDS011;10615;42.702;23.314;2024-02-28T01:43:32;24.55;;;16.27;;
20910;SDS011;10615;42.702;23.314;2024-02-28T01:44:33;29.30;;;17.17;;
20910;SDS011;10615;42.702;23.314;2024-02-28T01:45:40;27.73;;;17.23;;
20910;SDS011;10615;42.702;23.314;2024-02-28T01:46:40;29.48;;;17.40;;
20910;SDS011;10615;42.702;23.314;2024-02-28T01:47:42;28.55;;;16.55;;
20910;SDS011;10615;42.702;23.314;2024-02-28T01:48:43;27.50;;;17.52;;
20910;SDS011;10615;42.702;23.314;2024-02-28T01:49:44;25.48;;;16.50;;
20910;SDS011;10615;42.702;23.314;2024-02-28T01:50:46;25.40;;;15.77;;
20910;SDS011;10615;42.702;23.314;2024-02-28T01:51:47;25.40;;;16.23;;
20910;SDS011;10615;42.702;23.314;2024-02-28T01:52:49;27.98;;;17.27;;
20910;SDS011;10615;42.702;23.314;2024-02-28T01:53:53;28.90;;;16.80;;
20910;SDS011;10615;42.702;23.314;2024-02-28T01:54:54;26.92;;;16.85;;
20910;SDS011;10615;42.702;23.314;2024-02-28T01:55:56;25.83;;;16.05;;
20910;SDS011;10615;42.702;23.314;2024-02-28T01:56:57;26.80;;;16.38;;
20910;SDS011;10615;42.702;23.314;2024-02-28T01:57:58;24.65;;;16.35;;
20910;SDS011;10615;42.702;23.314;2024-02-28T01:58:59;24.35;;;16.90;;
20910;SDS011;10615;42.702;23.314;2024-02-28T02:00:00;23.13;;;15.68;;
20910;SDS011;10615;42.702;23.314;2024-02-28T02:01:02;24.08;;;16.30;;
20910;SDS011;10615;42.702;23.314;2024-02-28T02:02:03;24.88;;;15.52;;
20910;SDS011;10615;42.702;23.314;2024-02-28T02:03:04;26.10;;;16.23;;
20910;SDS011;10615;42.702;23.314;2024-02-28T02:04:05;26.77;;;16.65;;
20910;SDS011;10615;42.702;23.314;2024-02-28T02:05:06;25.88;;;16.92;;
20910;SDS011;10615;42.702;23.314;2024-02-28T02:06:08;24.13;;;16.05;;
20910;SDS011;10615;42.702;23.314;2024-02-28T02:07:09;24.48;;;16.30;;
20910;SDS011;10615;42.702;23.314;2024-02-28T02:08:10;27.90;;;17.35;;
20910;SDS011;10615;42.702;23.314;2024-02-28T02:09:11;27.55;;;17.65;;
20910;SDS011;10615;42.702;23.314;2024-02-28T02:10:12;26.33;;;17.10;;
20910;SDS011;10615;42.702;23.314;2024-02-28T02:11:14;27.15;;;17.88;;
20910;SDS011;10615;42.702;23.314;2024-02-28T02:12:18;30.38;;;18.65;;
20910;SDS011;10615;42.702;23.314;2024-02-28T02:13:19;35.72;;;20.02;;
20910;SDS011;10615;42.702;23.314;2024-02-28T02:14:20;29.75;;;19.60;;
20910;SDS011;10615;42.702;23.314;2024-02-28T02:15:21;32.85;;;20.00;;
20910;SDS011;10615;42.702;23.314;2024-02-28T02:16:21;30.40;;;19.67;;
20910;SDS011;10615;42.702;23.314;2024-02-28T02:17:22;31.92;;;19.77;;
20910;SDS011;10615;42.702;23.314;2024-02-28T02:18:23;33.53;;;20.92;;
20910;SDS011;10615;42.702;23.314;2024-02-28T02:19:24;30.98;;;19.45;;
20910;SDS011;10615;42.702;23.314;2024-02-28T02:20:25;31.52;;;19.52;;
20910;SDS011;10615;42.702;23.314;2024-02-28T02:21:34;34.83;;;20.15;;
20910;SDS011;10615;42.702;23.314;2024-02-28T02:22:38;34.13;;;19.25;;
20910;SDS011;10615;42.702;23.314;2024-02-28T02:23:38;31.33;;;19.80;;
20910;SDS011;10615;42.702;23.314;2024-02-28T02:24:41;35.67;;;19.80;;
20910;SDS011;10615;42.702;23.314;2024-02-28T02:25:45;31.02;;;20.20;;
20910;SDS011;10615;42.702;23.314;2024-02-28T02:26:47;36.83;;;21.17;;
20910;SDS011;10615;42.702;23.314;2024-02-28T02:27:50;29.83;;;20.15;;
20910;SDS011;10615;42.702;23.314;2024-02-28T02:28:51;33.72;;;20.38;;
20910;SDS011;10615;42.702;23.314;2024-02-28T02:29:51;32.80;;;20.30;;
20910;SDS011;10615;42.702;23.314;2024-02-28T02:30:52;27.83;;;19.08;;
20910;SDS011;10615;42.702;23.314;2024-02-28T02:31:53;31.50;;;20.48;;
20910;SDS011;10615;42.702;23.314;2024-02-28T02:32:54;30.60;;;19.63;;
20910;SDS011;10615;42.702;23.314;2024-02-28T02:33:55;26.20;;;18.45;;
20910;SDS011;10615;42.702;23.314;2024-02-28T02:34:55;30.20;;;19.23;;
20910;SDS011;10615;42.702;23.314;2024-02-28T02:35:56;29.60;;;19.42;;
20910;SDS011;10615;42.702;23.314;2024-02-28T02:36:57;28.42;;;19.02;;
20910;SDS011;10615;42.702;23.314;2024-02-28T02:37:58;31.23;;;19.52;;
20910;SDS011;10615;42.702;23.314;2024-02-28T02:38:58;24.88;;;18.42;;
20910;SDS011;10615;42.702;23.314;2024-02-28T02:39:59;29.45;;;19.02;;
20910;SDS011;10615;42.702;23.314;2024-02-28T02:41:01;29.65;;;18.83;;
20910;SDS011;10615;42.702;23.314;2024-02-28T02:42:01;28.17;;;18.90;;
20910;SDS011;10615;42.702;23.314;2024-02-28T02:43:02;25.70;;;17.42;;
20910;SDS011;10615;42.702;23.314;2024-02-28T02:44:03;27.00;;;17.90;;
20910;SDS011;10615;42.702;23.314;2024-02-28T02:45:04;27.55;;;18.55;;
20910;SDS011;10615;42.702;23.314;2024-02-28T02:46:05;31.08;;;18.83;;
20910;SDS011;10615;42.702;23.314;2024-02-28T02:47:06;25.55;;;17.58;;
20910;SDS011;10615;42.702;23.314;2024-02-28T02:48:06;29.48;;;18.50;;
20910;SDS011;10615;42.702;23.314;2024-02-28T02:49:07;29.10;;;18.55;;
20910;SDS011;10615;42.702;23.314;2024-02-28T02:50:08;27.70;;;17.70;;
20910;SDS011;10615;42.702;23.314;2024-02-28T02:51:09;28.52;;;18.58;;
20910;SDS011;10615;42.702;23.314;2024-02-28T02:52:09;26.25;;;17.67;;
20910;SDS011;10615;42.702;23.314;2024-02-28T02:53:10;29.77;;;18.55;;
20910;SDS011;10615;42.702;23.314;2024-02-28T02:54:11;25.65;;;17.70;;
20910;SDS011;10615;42.702;23.314;2024-02-28T02:55:11;29.02;;;18.40;;
20910;SDS011;10615;42.702;23.314;2024-02-28T02:56:12;26.00;;;18.75;;
20910;SDS011;10615;42.702;23.314;2024-02-28T02:57:13;30.63;;;18.08;;
20910;SDS011;10615;42.702;23.314;2024-02-28T02:58:14;27.42;;;18.17;;
20910;SDS011;10615;42.702;23.314;2024-02-28T02:59:14;25.92;;;17.75;;
20910;SDS011;10615;42.702;23.314;2024-02-28T03:00:15;28.30;;;18.58;;
20910;SDS011;10615;42.702;23.314;2024-02-28T03:01:16;29.08;;;18.80;;
20910;SDS011;10615;42.702;23.314;2024-02-28T03:02:17;26.45;;;18.10;;
20910;SDS011;10615;42.702;23.314;2024-02-28T03:03:17;26.45;;;17.75;;
20910;SDS011;10615;42.702;23.314;2024-02-28T03:04:18;28.88;;;18.48;;
20910;SDS011;10615;42.702;23.314;2024-02-28T03:05:19;25.95;;;18.77;;
20910;SDS011;10615;42.702;23.314;2024-02-28T03:06:20;26.05;;;17.33;;
20910;SDS011;10615;42.702;23.314;2024-02-28T03:07:21;30.08;;;18.95;;
20910;SDS011;10615;42.702;23.314;2024-02-28T03:08:22;29.38;;;19.50;;
20910;SDS011;10615;42.702;23.314;2024-02-28T03:09:23;31.55;;;19.30;;
20910;SDS011;10615;42.702;23.314;2024-02-28T03:10:24;27.13;;;18.42;;
20910;SDS011;10615;42.702;23.314;2024-02-28T03:11:25;27.08;;;17.98;;
20910;SDS011;10615;42.702;23.314;2024-02-28T03:12:26;28.30;;;19.27;;
20910;SDS011;10615;42.702;23.314;2024-02-28T03:13:26;26.65;;;18.17;;
20910;SDS011;10615;42.702;23.314;2024-02-28T03:14:28;28.20;;;18.83;;
20910;SDS011;10615;42.702;23.314;2024-02-28T03:15:29;31.08;;;19.45;;
20910;SDS011;10615;42.702;23.314;2024-02-28T03:16:30;27.13;;;18.23;;
20910;SDS011;10615;42.702;23.314;2024-02-28T03:17:30;28.90;;;18.13;;
20910;SDS011;10615;42.702;23.314;2024-02-28T03:18:31;29.48;;;18.98;;
20910;SDS011;10615;42.702;23.314;2024-02-28T03:19:32;27.73;;;19.02;;
20910;SDS011;10615;42.702;23.314;2024-02-28T03:20:32;27.30;;;18.63;;
20910;SDS011;10615;42.702;23.314;2024-02-28T03:21:34;30.08;;;18.42;;
20910;SDS011;10615;42.702;23.314;2024-02-28T03:22:34;29.02;;;19.77;;
20910;SDS011;10615;42.702;23.314;2024-02-28T03:23:35;29.73;;;17.90;;
20910;SDS011;10615;42.702;23.314;2024-02-28T03:24:36;27.48;;;18.70;;
20910;SDS011;10615;42.702;23.314;2024-02-28T03:25:37;28.55;;;18.27;;
20910;SDS011;10615;42.702;23.314;2024-02-28T03:26:38;28.85;;;17.73;;
20910;SDS011;10615;42.702;23.314;2024-02-28T03:27:38;28.27;;;18.25;;
20910;SDS011;10615;42.702;23.314;2024-02-28T03:28:39;30.92;;;19.35;;
20910;SDS011;10615;42.702;23.314;2024-02-28T03:29:40;27.10;;;18.23;;
20910;SDS011;10615;42.702;23.314;2024-02-28T03:30:41;31.88;;;18.73;;
20910;SDS011;10615;42.702;23.314;2024-02-28T03:31:41;26.55;;;18.45;;
20910;SDS011;10615;42.702;23.314;2024-02-28T03:32:42;28.25;;;18.92;;
20910;SDS011;10615;42.702;23.314;2024-02-28T03:33:43;28.75;;;18.75;;
20910;SDS011;10615;42.702;23.314;2024-02-28T03:34:44;28.48;;;18.50;;
20910;SDS011;10615;42.702;23.314;2024-02-28T03:35:44;28.38;;;19.30;;
20910;SDS011;10615;42.702;23.314;2024-02-28T03:36:45;29.98;;;19.25;;
20910;SDS011;10615;42.702;23.314;2024-02-28T03:37:46;28.75;;;18.15;;
20910;SDS011;10615;42.702;23.314;2024-02-28T03:38:47;26.77;;;17.83;;
20910;SDS011;10615;42.702;23.314;2024-02-28T03:39:47;29.05;;;17.92;;
20910;SDS011;10615;42.702;23.314;2024-02-28T03:40:48;27.92;;;18.83;;
20910;SDS011;10615;42.702;23.314;2024-02-28T03:41:49;28.48;;;18.27;;
20910;SDS011;10615;42.702;23.314;2024-02-28T03:42:49;24.85;;;18.00;;
20910;SDS011;10615;42.702;23.314;2024-02-28T03:43:50;28.88;;;18.48;;
20910;SDS011;10615;42.702;23.314;2024-02-28T03:44:51;28.20;;;18.90;;
20910;SDS011;10615;42.702;23.314;2024-02-28T03:45:51;27.27;;;18.33;;
20910;SDS011;10615;42.702;23.314;2024-02-28T03:46:52;28.15;;;18.27;;
20910;SDS011;10615;42.702;23.314;2024-02-28T03:47:53;30.08;;;18.67;;
20910;SDS011;10615;42.702;23.314;2024-02-28T03:48:54;28.70;;;19.30;;
20910;SDS011;10615;42.702;23.314;2024-02-28T03:49:54;32.15;;;18.73;;
20910;SDS011;10615;42.702;23.314;2024-02-28T03:50:57;26.95;;;19.30;;
20910;SDS011;10615;42.702;23.314;2024-02-28T03:51:58;30.98;;;19.80;;
20910;SDS011;10615;42.702;23.314;2024-02-28T03:52:58;33.55;;;19.92;;
20910;SDS011;10615;42.702;23.314;2024-02-28T03:53:59;27.13;;;18.65;;
20910;SDS011;10615;42.702;23.314;2024-02-28T03:55:00;32.97;;;21.05;;
20910;SDS011;10615;42.702;23.314;2024-02-28T03:56:01;27.23;;;19.67;;
20910;SDS011;10615;42.702;23.314;2024-02-28T03:57:03;31.15;;;20.00;;
20910;SDS011;10615;42.702;23.314;2024-02-28T03:58:03;33.65;;;19.98;;
20910;SDS011;10615;42.702;23.314;2024-02-28T03:59:07;28.70;;;19.50;;
20910;SDS011;10615;42.702;23.314;2024-02-28T04:00:07;29.90;;;19.75;;
20910;SDS011;10615;42.702;23.314;2024-02-28T04:01:27;31.67;;;20.00;;
20910;SDS011;10615;42.702;23.314;2024-02-28T04:02:28;30.60;;;19.13;;
20910;SDS011;10615;42.702;23.314;2024-02-28T04:03:28;31.92;;;19.58;;
20910;SDS011;10615;42.702;23.314;2024-02-28T04:04:29;32.10;;;19.98;;
20910;SDS011;10615;42.702;23.314;2024-02-28T04:05:30;32.40;;;19.63;;
20910;SDS011;10615;42.702;23.314;2024-02-28T04:06:31;28.10;;;18.92;;
20910;SDS011;10615;42.702;23.314;2024-02-28T04:07:31;32.13;;;21.02;;
20910;SDS011;10615;42.702;23.314;2024-02-28T04:08:32;28.95;;;19.75;;
20910;SDS011;10615;42.702;23.314;2024-02-28T04:09:33;25.73;;;18.98;;
20910;SDS011;10615;42.702;23.314;2024-02-28T04:10:33;29.75;;;19.75;;
20910;SDS011;10615;42.702;23.314;2024-02-28T04:11:34;30.95;;;19.38;;
20910;SDS011;10615;42.702;23.314;2024-02-28T04:12:38;28.42;;;19.45;;
20910;SDS011;10615;42.702;23.314;2024-02-28T04:13:39;27.83;;;18.38;;
20910;SDS011;10615;42.702;23.314;2024-02-28T04:14:40;30.48;;;19.63;;
20910;SDS011;10615;42.702;23.314;2024-02-28T04:15:41;27.92;;;19.40;;
20910;SDS011;10615;42.702;23.314;2024-02-28T04:16:42;29.23;;;19.05;;
20910;SDS011;10615;42.702;23.314;2024-02-28T04:17:46;30.23;;;18.38;;
20910;SDS011;10615;42.702;23.314;2024-02-28T04:18:46;30.73;;;19.85;;
20910;SDS011;10615;42.702;23.314;2024-02-28T04:19:47;30.52;;;20.00;;
20910;SDS011;10615;42.702;23.314;2024-02-28T04:20:48;32.10;;;20.83;;
20910;SDS011;10615;42.702;23.314;2024-02-28T04:21:48;30.23;;;21.20;;
20910;SDS011;10615;42.702;23.314;2024-02-28T04:22:49;29.48;;;21.00;;
20910;SDS011;10615;42.702;23.314;2024-02-28T04:23:50;29.13;;;20.33;;
20910;SDS011;10615;42.702;23.314;2024-02-28T04:24:51;31.00;;;20.42;;
20910;SDS011;10615;42.702;23.314;2024-02-28T04:25:52;28.60;;;19.60;;
20910;SDS011;10615;42.702;23.314;2024-02-28T04:26:52;32.20;;;21.30;;
20910;SDS011;10615;42.702;23.314;2024-02-28T04:27:53;31.08;;;20.33;;
20910;SDS011;10615;42.702;23.314;2024-02-28T04:28:54;30.15;;;20.35;;
20910;SDS011;10615;42.702;23.314;2024-02-28T04:29:55;31.75;;;20.02;;
20910;SDS011;10615;42.702;23.314;2024-02-28T04:30:56;30.10;;;19.65;;
20910;SDS011;10615;42.702;23.314;2024-02-28T04:31:56;30.40;;;20.85;;
20910;SDS011;10615;42.702;23.314;2024-02-28T04:32:57;31.33;;;19.88;;
20910;SDS011;10615;42.702;23.314;2024-02-28T04:33:58;30.15;;;20.02;;
20910;SDS011;10615;42.702;23.314;2024-02-28T04:34:59;27.83;;;19.13;;
20910;SDS011;10615;42.702;23.314;2024-02-28T04:36:00;30.25;;;20.40;;
20910;SDS011;10615;42.702;23.314;2024-02-28T04:37:00;28.98;;;19.80;;
20910;SDS011;10615;42.702;23.314;2024-02-28T04:38:01;33.30;;;21.27;;
20910;SDS011;10615;42.702;23.314;2024-02-28T04:39:02;30.63;;;20.52;;
20910;SDS011;10615;42.702;23.314;2024-02-28T04:40:06;32.70;;;21.42;;
20910;SDS011;10615;42.702;23.314;2024-02-28T04:41:07;32.25;;;22.08;;
20910;SDS011;10615;42.702;23.314;2024-02-28T04:42:08;36.65;;;21.42;;
20910;SDS011;10615;42.702;23.314;2024-02-28T04:43:08;29.50;;;20.83;;
20910;SDS011;10615;42.702;23.314;2024-02-28T04:44:09;29.73;;;20.48;;
20910;SDS011;10615;42.702;23.314;2024-02-28T04:45:10;33.28;;;19.73;;
20910;SDS011;10615;42.702;23.314;2024-02-28T04:46:11;32.05;;;20.75;;
20910;SDS011;10615;42.702;23.314;2024-02-28T04:47:12;30.77;;;20.88;;
20910;SDS011;10615;42.702;23.314;2024-02-28T04:48:12;36.80;;;23.08;;
20910;SDS011;10615;42.702;23.314;2024-02-28T04:49:14;29.70;;;20.73;;
20910;SDS011;10615;42.702;23.314;2024-02-28T04:50:14;33.20;;;20.70;;
20910;SDS011;10615;42.702;23.314;2024-02-28T04:51:15;32.47;;;19.20;;
20910;SDS011;10615;42.702;23.314;2024-02-28T04:52:17;29.17;;;19.65;;
20910;SDS011;10615;42.702;23.314;2024-02-28T04:53:18;33.53;;;20.27;;
20910;SDS011;10615;42.702;23.314;2024-02-28T04:54:18;33.22;;;20.38;;
20910;SDS011;10615;42.702;23.314;2024-02-28T04:55:19;33.58;;;20.80;;
20910;SDS011;10615;42.702;23.314;2024-02-28T04:56:20;31.60;;;20.60;;
20910;SDS011;10615;42.702;23.314;2024-02-28T04:57:21;30.17;;;20.23;;
20910;SDS011;10615;42.702;23.314;2024-02-28T04:58:21;31.05;;;20.40;;
20910;SDS011;10615;42.702;23.314;2024-02-28T04:59:22;31.17;;;20.02;;
20910;SDS011;10615;42.702;23.314;2024-02-28T05:00:23;29.10;;;19.50;;
20910;SDS011;10615;42.702;23.314;2024-02-28T05:01:23;31.48;;;20.60;;
20910;SDS011;10615;42.702;23.314;2024-02-28T05:02:24;31.15;;;20.15;;
20910;SDS011;10615;42.702;23.314;2024-02-28T05:03:25;30.75;;;20.25;;
20910;SDS011;10615;42.702;23.314;2024-02-28T05:04:26;34.72;;;20.48;;
20910;SDS011;10615;42.702;23.314;2024-02-28T05:05:27;34.72;;;20.65;;
20910;SDS011;10615;42.702;23.314;2024-02-28T05:06:28;30.13;;;19.42;;
20910;SDS011;10615;42.702;23.314;2024-02-28T05:07:28;31.73;;;19.98;;
20910;SDS011;10615;42.702;23.314;2024-02-28T05:08:29;33.80;;;20.88;;
20910;SDS011;10615;42.702;23.314;2024-02-28T05:09:30;29.60;;;18.63;;
20910;SDS011;10615;42.702;23.314;2024-02-28T05:10:31;28.58;;;20.23;;
20910;SDS011;10615;42.702;23.314;2024-02-28T05:11:31;30.52;;;19.77;;
20910;SDS011;10615;42.702;23.314;2024-02-28T05:12:32;32.20;;;20.33;;
20910;SDS011;10615;42.702;23.314;2024-02-28T05:13:34;30.08;;;19.75;;
20910;SDS011;10615;42.702;23.314;2024-02-28T05:14:35;28.55;;;18.98;;
20910;SDS011;10615;42.702;23.314;2024-02-28T05:15:36;31.73;;;20.35;;
20910;SDS011;10615;42.702;23.314;2024-02-28T05:16:36;28.17;;;18.75;;
20910;SDS011;10615;42.702;23.314;2024-02-28T05:17:37;30.65;;;20.45;;
20910;SDS011;10615;42.702;23.314;2024-02-28T05:18:38;33.08;;;20.45;;
20910;SDS011;10615;42.702;23.314;2024-02-28T05:19:39;29.45;;;20.58;;
20910;SDS011;10615;42.702;23.314;2024-02-28T05:20:39;34.42;;;24.02;;
20910;SDS011;10615;42.702;23.314;2024-02-28T05:21:40;35.65;;;22.52;;
20910;SDS011;10615;42.702;23.314;2024-02-28T05:22:42;30.27;;;20.75;;
20910;SDS011;10615;42.702;23.314;2024-02-28T05:23:42;33.60;;;20.25;;
20910;SDS011;10615;42.702;23.314;2024-02-28T05:24:45;33.33;;;21.13;;
20910;SDS011;10615;42.702;23.314;2024-02-28T05:25:46;38.03;;;22.67;;
20910;SDS011;10615;42.702;23.314;2024-02-28T05:26:47;33.60;;;21.52;;
20910;SDS011;10615;42.702;23.314;2024-02-28T05:27:48;33.08;;;21.20;;
20910;SDS011;10615;42.702;23.314;2024-02-28T05:28:48;33.75;;;21.10;;
20910;SDS011;10615;42.702;23.314;2024-02-28T05:29:49;33.92;;;19.52;;
20910;SDS011;10615;42.702;23.314;2024-02-28T05:30:50;30.83;;;20.23;;
20910;SDS011;10615;42.702;23.314;2024-02-28T05:31:50;31.35;;;19.88;;
20910;SDS011;10615;42.702;23.314;2024-02-28T05:32:51;30.63;;;19.77;;
20910;SDS011;10615;42.702;23.314;2024-02-28T05:33:52;31.48;;;19.40;;
20910;SDS011;10615;42.702;23.314;2024-02-28T05:34:54;28.10;;;19.48;;
20910;SDS011;10615;42.702;23.314;2024-02-28T05:35:55;31.77;;;20.17;;
20910;SDS011;10615;42.702;23.314;2024-02-28T05:36:55;37.10;;;22.00;;
20910;SDS011;10615;42.702;23.314;2024-02-28T05:37:56;31.65;;;20.73;;
20910;SDS011;10615;42.702;23.314;2024-02-28T05:38:57;35.95;;;21.05;;
20910;SDS011;10615;42.702;23.314;2024-02-28T05:39:58;30.95;;;20.63;;
20910;SDS011;10615;42.702;23.314;2024-02-28T05:40:59;35.70;;;21.25;;
20910;SDS011;10615;42.702;23.314;2024-02-28T05:41:59;31.13;;;20.90;;
20910;SDS011;10615;42.702;23.314;2024-02-28T05:43:00;30.00;;;19.73;;
20910;SDS011;10615;42.702;23.314;2024-02-28T05:44:02;31.55;;;20.20;;
20910;SDS011;10615;42.702;23.314;2024-02-28T05:45:02;34.63;;;21.38;;
20910;SDS011;10615;42.702;23.314;2024-02-28T05:46:03;32.92;;;20.00;;
20910;SDS011;10615;42.702;23.314;2024-02-28T05:47:04;30.77;;;20.67;;
20910;SDS011;10615;42.702;23.314;2024-02-28T05:48:05;31.15;;;20.42;;
20910;SDS011;10615;42.702;23.314;2024-02-28T05:49:06;30.90;;;20.65;;
20910;SDS011;10615;42.702;23.314;2024-02-28T05:50:08;30.45;;;20.55;;
20910;SDS011;10615;42.702;23.314;2024-02-28T05:51:10;33.55;;;21.67;;
20910;SDS011;10615;42.702;23.314;2024-02-28T05:52:12;32.83;;;20.15;;